sensor_id;sensor_type;location;lat;lon;timestamp;pressure;altitude;pressure_sealevel;temperature;humidity
31761;BME280;18335;51.486;7.562;2023-02-28T00:00:10;101609.94;;;-1.77;100.00
31761;BME280;18335;51.486;7.562;2023-02-28T00:02:37;101612.06;;;-1.87;100.00
31761;BME280;18335;51.486;7.562;2023-02-28T00:05:06;101610.72;;;-1.74;100.00
31761;BME280;18335;51.486;7.562;2023-02-28T00:07:33;101610.81;;;-1.77;100.00
31761;BME280;18335;51.486;7.562;2023-02-28T00:10:00;101613.53;;;-1.78;100.00
31761;BME280;18335;51.486;7.562;2023-02-28T00:12:27;101615.50;;;-1.83;100.00
31761;BME280;18335;51.486;7.562;2023-02-28T00:14:54;101608.50;;;-1.87;100.00
31761;BME280;18335;51.486;7.562;2023-02-28T00:17:22;101610.41;;;-1.91;100.00
31761;BME280;18335;51.486;7.562;2023-02-28T00:19:50;101612.13;;;-1.88;100.00
31761;BME280;18335;51.486;7.562;2023-02-28T00:22:18;101618.41;;;-1.89;100.00
31761;BME280;18335;51.486;7.562;2023-02-28T00:24:45;101608.28;;;-1.81;100.00
31761;BME280;18335;51.486;7.562;2023-02-28T00:27:12;101615.84;;;-1.92;100.00
31761;BME280;18335;51.486;7.562;2023-02-28T00:29:39;101603.25;;;-1.90;100.00
31761;BME280;18335;51.486;7.562;2023-02-28T00:32:06;101609.78;;;-1.97;100.00
31761;BME280;18335;51.486;7.562;2023-02-28T00:34:34;101608.66;;;-2.16;100.00
31761;BME280;18335;51.486;7.562;2023-02-28T00:37:04;101611.31;;;-2.16;100.00
31761;BME280;18335;51.486;7.562;2023-02-28T00:39:34;101614.03;;;-2.18;100.00
31761;BME280;18335;51.486;7.562;2023-02-28T00:42:01;101615.13;;;-2.24;100.00
31761;BME280;18335;51.486;7.562;2023-02-28T00:44:28;101607.84;;;-2.18;100.00
31761;BME280;18335;51.486;7.562;2023-02-28T00:46:55;101611.06;;;-2.35;100.00
31761;BME280;18335;51.486;7.562;2023-02-28T00:49:24;101608.19;;;-2.57;100.00
31761;BME280;18335;51.486;7.562;2023-02-28T00:51:52;101602.94;;;-2.58;100.00
31761;BME280;18335;51.486;7.562;2023-02-28T00:54:20;101619.31;;;-2.69;100.00
31761;BME280;18335;51.486;7.562;2023-02-28T00:56:47;101621.69;;;-2.60;100.00
31761;BME280;18335;51.486;7.562;2023-02-28T00:59:14;101621.13;;;-2.71;100.00
31761;BME280;18335;51.486;7.562;2023-02-28T01:01:41;101616.34;;;-2.88;100.00
31761;BME280;18335;51.486;7.562;2023-02-28T01:04:08;101614.94;;;-3.01;100.00
31761;BME280;18335;51.486;7.562;2023-02-28T01:06:35;101620.00;;;-2.92;100.00
31761;BME280;18335;51.486;7.562;2023-02-28T01:09:04;101620.59;;;-2.82;100.00
31761;BME280;18335;51.486;7.562;2023-02-28T01:11:32;101619.50;;;-3.04;100.00
31761;BME280;18335;51.486;7.562;2023-02-28T01:13:59;101615.81;;;-2.99;100.00
31761;BME280;18335;51.486;7.562;2023-02-28T01:16:26;101613.59;;;-2.86;100.00
31761;BME280;18335;51.486;7.562;2023-02-28T01:18:53;101613.31;;;-2.77;100.00
31761;BME280;18335;51.486;7.562;2023-02-28T01:21:21;101609.97;;;-2.84;100.00
31761;BME280;18335;51.486;7.562;2023-02-28T01:23:48;101614.44;;;-3.13;100.00
31761;BME280;18335;51.486;7.562;2023-02-28T01:26:18;101604.34;;;-3.02;100.00
31761;BME280;18335;51.486;7.562;2023-02-28T01:28:45;101604.03;;;-3.22;100.00
31761;BME280;18335;51.486;7.562;2023-02-28T01:31:12;101604.63;;;-3.11;100.00
31761;BME280;18335;51.486;7.562;2023-02-28T01:33:40;101608.72;;;-3.01;100.00
31761;BME280;18335;51.486;7.562;2023-02-28T01:36:09;101604.78;;;-3.47;100.00
31761;BME280;18335;51.486;7.562;2023-02-28T01:38:37;101601.06;;;-3.41;100.00
31761;BME280;18335;51.486;7.562;2023-02-28T01:41:05;101604.03;;;-3.52;100.00
31761;BME280;18335;51.486;7.562;2023-02-28T01:43:54;101604.59;;;-3.41;100.00
31761;BME280;18335;51.486;7.562;2023-02-28T01:46:21;101603.66;;;-3.40;100.00
31761;BME280;18335;51.486;7.562;2023-02-28T01:48:53;101603.31;;;-3.27;100.00
31761;BME280;18335;51.486;7.562;2023-02-28T01:51:25;101605.97;;;-3.27;100.00
31761;BME280;18335;51.486;7.562;2023-02-28T01:53:55;101600.00;;;-3.36;100.00
31761;BME280;18335;51.486;7.562;2023-02-28T01:56:24;101601.25;;;-3.47;100.00
31761;BME280;18335;51.486;7.562;2023-02-28T01:58:54;101600.22;;;-3.74;100.00
31761;BME280;18335;51.486;7.562;2023-02-28T02:01:23;101603.63;;;-3.69;100.00
31761;BME280;18335;51.486;7.562;2023-02-28T02:03:53;101602.31;;;-3.54;100.00
31761;BME280;18335;51.486;7.562;2023-02-28T02:06:21;101604.97;;;-3.53;100.00
31761;BME280;18335;51.486;7.562;2023-02-28T02:08:48;101600.53;;;-3.54;100.00
31761;BME280;18335;51.486;7.562;2023-02-28T02:11:18;101596.44;;;-3.67;100.00
31761;BME280;18335;51.486;7.562;2023-02-28T02:14:12;101601.63;;;-3.61;100.00
31761;BME280;18335;51.486;7.562;2023-02-28T02:16:52;101591.28;;;-3.73;100.00
31761;BME280;18335;51.486;7.562;2023-02-28T02:22:50;101593.13;;;-3.75;100.00
31761;BME280;18335;51.486;7.562;2023-02-28T02:25:28;101586.19;;;-3.80;100.00
31761;BME280;18335;51.486;7.562;2023-02-28T02:34:27;101586.91;;;-3.74;100.00
31761;BME280;18335;51.486;7.562;2023-02-28T02:37:03;101587.00;;;-3.78;100.00
31761;BME280;18335;51.486;7.562;2023-02-28T02:39:40;101592.25;;;-3.75;100.00
31761;BME280;18335;51.486;7.562;2023-02-28T02:42:16;101592.56;;;-3.86;100.00
31761;BME280;18335;51.486;7.562;2023-02-28T02:44:48;101590.84;;;-3.88;100.00
31761;BME280;18335;51.486;7.562;2023-02-28T02:47:20;101587.41;;;-3.94;100.00
31761;BME280;18335;51.486;7.562;2023-02-28T02:49:52;101587.72;;;-4.04;100.00
31761;BME280;18335;51.486;7.562;2023-02-28T02:52:27;101591.09;;;-3.98;100.00
31761;BME280;18335;51.486;7.562;2023-02-28T02:54:58;101595.34;;;-3.91;100.00
31761;BME280;18335;51.486;7.562;2023-02-28T02:57:30;101593.44;;;-3.85;100.00
31761;BME280;18335;51.486;7.562;2023-02-28T03:00:00;101590.06;;;-3.92;100.00
31761;BME280;18335;51.486;7.562;2023-02-28T03:02:29;101590.94;;;-3.92;100.00
31761;BME280;18335;51.486;7.562;2023-02-28T03:05:03;101586.53;;;-3.94;100.00
31761;BME280;18335;51.486;7.562;2023-02-28T03:07:31;101588.31;;;-3.93;100.00
31761;BME280;18335;51.486;7.562;2023-02-28T03:09:58;101580.69;;;-4.07;100.00
31761;BME280;18335;51.486;7.562;2023-02-28T03:12:32;101587.75;;;-4.06;100.00
31761;BME280;18335;51.486;7.562;2023-02-28T03:15:10;101583.53;;;-4.14;100.00
31761;BME280;18335;51.486;7.562;2023-02-28T03:17:59;101582.41;;;-4.04;100.00
31761;BME280;18335;51.486;7.562;2023-02-28T03:20:36;101589.13;;;-4.23;100.00
31761;BME280;18335;51.486;7.562;2023-02-28T03:23:13;101582.88;;;-4.22;100.00
31761;BME280;18335;51.486;7.562;2023-02-28T03:25:51;101579.91;;;-4.10;100.00
31761;BME280;18335;51.486;7.562;2023-02-28T03:28:29;101582.50;;;-4.09;100.00
31761;BME280;18335;51.486;7.562;2023-02-28T03:31:00;101585.53;;;-4.22;100.00
31761;BME280;18335;51.486;7.562;2023-02-28T03:33:34;101582.06;;;-4.24;100.00
31761;BME280;18335;51.486;7.562;2023-02-28T03:36:06;101584.09;;;-4.35;100.00
31761;BME280;18335;51.486;7.562;2023-02-28T03:38:39;101584.66;;;-4.21;100.00
31761;BME280;18335;51.486;7.562;2023-02-28T03:41:12;101590.06;;;-4.26;100.00
31761;BME280;18335;51.486;7.562;2023-02-28T03:43:44;101590.06;;;-4.26;100.00
31761;BME280;18335;51.486;7.562;2023-02-28T03:46:15;101599.41;;;-4.43;100.00
31761;BME280;18335;51.486;7.562;2023-02-28T03:48:50;101600.38;;;-4.48;100.00
31761;BME280;18335;51.486;7.562;2023-02-28T03:51:21;101595.06;;;-4.48;100.00
31761;BME280;18335;51.486;7.562;2023-02-28T03:53:52;101593.25;;;-4.45;100.00
31761;BME280;18335;51.486;7.562;2023-02-28T03:56:22;101594.84;;;-4.74;100.00
31761;BME280;18335;51.486;7.562;2023-02-28T03:58:54;101591.94;;;-4.65;100.00
31761;BME280;18335;51.486;7.562;2023-02-28T04:01:25;101601.50;;;-4.56;100.00
31761;BME280;18335;51.486;7.562;2023-02-28T04:03:54;101589.59;;;-4.41;100.00
31761;BME280;18335;51.486;7.562;2023-02-28T04:06:23;101595.78;;;-4.41;100.00
31761;BME280;18335;51.486;7.562;2023-02-28T04:08:50;101594.59;;;-4.63;100.00
31761;BME280;18335;51.486;7.562;2023-02-28T04:11:22;101598.09;;;-4.63;100.00
31761;BME280;18335;51.486;7.562;2023-02-28T04:13:50;101596.81;;;-4.83;100.00
31761;BME280;18335;51.486;7.562;2023-02-28T04:16:17;101598.38;;;-4.73;100.00
31761;BME280;18335;51.486;7.562;2023-02-28T04:18:44;101595.81;;;-4.78;100.00
31761;BME280;18335;51.486;7.562;2023-02-28T04:21:11;101599.25;;;-4.73;100.00
31761;BME280;18335;51.486;7.562;2023-02-28T04:23:40;101589.13;;;-4.59;100.00
31761;BME280;18335;51.486;7.562;2023-02-28T04:26:07;101594.28;;;-4.51;100.00
31761;BME280;18335;51.486;7.562;2023-02-28T04:28:33;101594.88;;;-4.75;100.00
31761;BME280;18335;51.486;7.562;2023-02-28T04:31:02;101604.38;;;-4.64;100.00
31761;BME280;18335;51.486;7.562;2023-02-28T04:33:29;101600.91;;;-4.69;100.00
31761;BME280;18335;51.486;7.562;2023-02-28T04:36:01;101602.75;;;-4.71;100.00
31761;BME280;18335;51.486;7.562;2023-02-28T04:38:29;101604.66;;;-4.76;100.00
31761;BME280;18335;51.486;7.562;2023-02-28T04:40:58;101604.66;;;-4.76;100.00
31761;BME280;18335;51.486;7.562;2023-02-28T04:43:26;101613.69;;;-4.83;100.00
31761;BME280;18335;51.486;7.562;2023-02-28T04:45:53;101607.13;;;-5.05;100.00
31761;BME280;18335;51.486;7.562;2023-02-28T04:48:22;101613.81;;;-4.89;100.00
31761;BME280;18335;51.486;7.562;2023-02-28T04:50:49;101615.50;;;-4.85;100.00
31761;BME280;18335;51.486;7.562;2023-02-28T04:53:16;101611.81;;;-5.18;100.00
31761;BME280;18335;51.486;7.562;2023-02-28T04:55:43;101605.88;;;-4.90;100.00
31761;BME280;18335;51.486;7.562;2023-02-28T04:58:11;101603.16;;;-4.87;100.00
31761;BME280;18335;51.486;7.562;2023-02-28T05:00:38;101604.94;;;-4.88;100.00
31761;BME280;18335;51.486;7.562;2023-02-28T05:03:05;101603.25;;;-4.92;100.00
31761;BME280;18335;51.486;7.562;2023-02-28T05:05:32;101606.09;;;-4.99;100.00
31761;BME280;18335;51.486;7.562;2023-02-28T05:07:59;101612.44;;;-5.07;100.00
31761;BME280;18335;51.486;7.562;2023-02-28T05:10:26;101617.97;;;-5.14;100.00
31761;BME280;18335;51.486;7.562;2023-02-28T05:12:53;101618.59;;;-5.03;100.00
31761;BME280;18335;51.486;7.562;2023-02-28T05:15:21;101617.81;;;-5.08;100.00
31761;BME280;18335;51.486;7.562;2023-02-28T05:17:48;101616.88;;;-5.06;100.00
31761;BME280;18335;51.486;7.562;2023-02-28T05:20:14;101618.03;;;-5.60;100.00
31761;BME280;18335;51.486;7.562;2023-02-28T05:22:42;101614.03;;;-5.38;100.00
31761;BME280;18335;51.486;7.562;2023-02-28T05:25:10;101618.81;;;-5.14;100.00
31761;BME280;18335;51.486;7.562;2023-02-28T05:27:38;101612.84;;;-4.85;100.00
31761;BME280;18335;51.486;7.562;2023-02-28T05:30:06;101621.25;;;-5.03;100.00
31761;BME280;18335;51.486;7.562;2023-02-28T05:32:37;101627.59;;;-5.10;100.00
31761;BME280;18335;51.486;7.562;2023-02-28T05:35:05;101629.56;;;-5.18;100.00
31761;BME280;18335;51.486;7.562;2023-02-28T05:37:31;101627.47;;;-5.44;100.00
31761;BME280;18335;51.486;7.562;2023-02-28T05:39:58;101628.53;;;-5.11;100.00
31761;BME280;18335;51.486;7.562;2023-02-28T05:42:25;101626.16;;;-5.25;100.00
31761;BME280;18335;51.486;7.562;2023-02-28T05:44:51;101633.94;;;-5.14;100.00
31761;BME280;18335;51.486;7.562;2023-02-28T05:47:18;101634.13;;;-5.25;100.00
31761;BME280;18335;51.486;7.562;2023-02-28T05:49:46;101632.84;;;-5.06;100.00
31761;BME280;18335;51.486;7.562;2023-02-28T05:52:13;101635.44;;;-5.44;100.00
31761;BME280;18335;51.486;7.562;2023-02-28T05:54:39;101634.31;;;-5.32;100.00
31761;BME280;18335;51.486;7.562;2023-02-28T05:57:06;101635.59;;;-5.51;100.00
31761;BME280;18335;51.486;7.562;2023-02-28T05:59:33;101642.19;;;-5.28;100.00
31761;BME280;18335;51.486;7.562;2023-02-28T06:02:00;101644.13;;;-5.36;100.00
31761;BME280;18335;51.486;7.562;2023-02-28T06:04:27;101638.69;;;-5.30;100.00
31761;BME280;18335;51.486;7.562;2023-02-28T06:06:55;101641.88;;;-5.55;100.00
31761;BME280;18335;51.486;7.562;2023-02-28T06:09:23;101639.72;;;-5.37;100.00
31761;BME280;18335;51.486;7.562;2023-02-28T06:11:50;101646.94;;;-5.43;100.00
31761;BME280;18335;51.486;7.562;2023-02-28T06:14:18;101651.59;;;-5.54;100.00
31761;BME280;18335;51.486;7.562;2023-02-28T06:16:45;101651.53;;;-5.50;100.00
31761;BME280;18335;51.486;7.562;2023-02-28T06:19:12;101654.06;;;-5.45;100.00
31761;BME280;18335;51.486;7.562;2023-02-28T06:21:40;101657.06;;;-5.19;100.00
31761;BME280;18335;51.486;7.562;2023-02-28T06:24:08;101658.13;;;-5.26;100.00
31761;BME280;18335;51.486;7.562;2023-02-28T06:26:35;101661.22;;;-5.47;100.00
31761;BME280;18335;51.486;7.562;2023-02-28T06:29:02;101662.16;;;-5.51;100.00
31761;BME280;18335;51.486;7.562;2023-02-28T06:31:29;101664.81;;;-5.50;100.00
31761;BME280;18335;51.486;7.562;2023-02-28T06:33:56;101669.97;;;-5.42;100.00
31761;BME280;18335;51.486;7.562;2023-02-28T06:36:22;101663.06;;;-5.51;100.00
31761;BME280;18335;51.486;7.562;2023-02-28T06:38:49;101664.78;;;-5.48;100.00
31761;BME280;18335;51.486;7.562;2023-02-28T06:41:23;101661.94;;;-5.39;100.00
31761;BME280;18335;51.486;7.562;2023-02-28T06:43:50;101671.00;;;-5.49;100.00
31761;BME280;18335;51.486;7.562;2023-02-28T06:46:16;101669.97;;;-5.41;100.00
31761;BME280;18335;51.486;7.562;2023-02-28T06:48:44;101674.91;;;-5.24;100.00
31761;BME280;18335;51.486;7.562;2023-02-28T06:51:14;101671.50;;;-5.29;100.00
31761;BME280;18335;51.486;7.562;2023-02-28T06:53:41;101670.59;;;-5.30;100.00
31761;BME280;18335;51.486;7.562;2023-02-28T06:56:10;101681.06;;;-5.22;100.00
31761;BME280;18335;51.486;7.562;2023-02-28T06:58:39;101678.34;;;-5.19;100.00
31761;BME280;18335;51.486;7.562;2023-02-28T07:01:06;101676.50;;;-5.16;100.00
31761;BME280;18335;51.486;7.562;2023-02-28T07:03:34;101683.84;;;-5.27;100.00
31761;BME280;18335;51.486;7.562;2023-02-28T07:06:02;101682.66;;;-5.14;100.00
31761;BME280;18335;51.486;7.562;2023-02-28T07:08:29;101680.88;;;-5.12;100.00
31761;BME280;18335;51.486;7.562;2023-02-28T07:10:57;101679.84;;;-5.06;100.00
31761;BME280;18335;51.486;7.562;2023-02-28T07:13:24;101684.16;;;-5.00;100.00
31761;BME280;18335;51.486;7.562;2023-02-28T07:15:57;101688.47;;;-4.95;100.00
31761;BME280;18335;51.486;7.562;2023-02-28T07:18:24;101692.00;;;-4.93;100.00
31761;BME280;18335;51.486;7.562;2023-02-28T07:20:52;101695.31;;;-4.82;100.00
31761;BME280;18335;51.486;7.562;2023-02-28T07:23:19;101691.75;;;-4.81;100.00
31761;BME280;18335;51.486;7.562;2023-02-28T07:25:46;101697.63;;;-4.67;100.00
31761;BME280;18335;51.486;7.562;2023-02-28T07:28:13;101700.22;;;-4.64;100.00
31761;BME280;18335;51.486;7.562;2023-02-28T07:30:40;101693.41;;;-4.38;100.00
31761;BME280;18335;51.486;7.562;2023-02-28T07:33:09;101687.63;;;-4.20;100.00
31761;BME280;18335;51.486;7.562;2023-02-28T07:35:35;101700.41;;;-3.98;100.00
31761;BME280;18335;51.486;7.562;2023-02-28T07:38:03;101696.69;;;-3.92;100.00
31761;BME280;18335;51.486;7.562;2023-02-28T07:40:30;101686.25;;;-3.67;100.00
31761;BME280;18335;51.486;7.562;2023-02-28T07:42:58;101684.09;;;-3.53;100.00
31761;BME280;18335;51.486;7.562;2023-02-28T07:45:25;101690.81;;;-3.39;100.00
31761;BME280;18335;51.486;7.562;2023-02-28T07:47:52;101691.22;;;-3.21;100.00
31761;BME280;18335;51.486;7.562;2023-02-28T07:50:20;101684.19;;;-2.95;100.00
31761;BME280;18335;51.486;7.562;2023-02-28T07:52:47;101692.75;;;-2.84;100.00
31761;BME280;18335;51.486;7.562;2023-02-28T07:55:14;101687.56;;;-2.88;100.00
31761;BME280;18335;51.486;7.562;2023-02-28T07:57:42;101685.53;;;-2.80;100.00
31761;BME280;18335;51.486;7.562;2023-02-28T08:00:11;101687.09;;;-3.02;100.00
31761;BME280;18335;51.486;7.562;2023-02-28T08:02:39;101688.81;;;-3.01;100.00
31761;BME280;18335;51.486;7.562;2023-02-28T08:05:07;101687.53;;;-3.17;100.00
31761;BME280;18335;51.486;7.562;2023-02-28T08:07:35;101698.41;;;-2.94;100.00
31761;BME280;18335;51.486;7.562;2023-02-28T08:10:03;101693.00;;;-2.91;100.00
31761;BME280;18335;51.486;7.562;2023-02-28T08:12:31;101695.50;;;-2.87;100.00
31761;BME280;18335;51.486;7.562;2023-02-28T08:14:57;101688.28;;;-2.83;100.00
31761;BME280;18335;51.486;7.562;2023-02-28T08:17:24;101691.53;;;-2.72;100.00
31761;BME280;18335;51.486;7.562;2023-02-28T08:19:51;101692.56;;;-2.78;100.00
31761;BME280;18335;51.486;7.562;2023-02-28T08:22:18;101682.00;;;-1.73;100.00
31761;BME280;18335;51.486;7.562;2023-02-28T08:24:46;101680.44;;;-2.04;100.00
31761;BME280;18335;51.486;7.562;2023-02-28T08:27:13;101680.88;;;-1.41;100.00
31761;BME280;18335;51.486;7.562;2023-02-28T08:29:40;101692.38;;;-1.63;100.00
31761;BME280;18335;51.486;7.562;2023-02-28T08:32:07;101689.75;;;-1.90;100.00
31761;BME280;18335;51.486;7.562;2023-02-28T08:34:33;101692.50;;;-1.67;100.00
31761;BME280;18335;51.486;7.562;2023-02-28T08:37:00;101697.38;;;-1.53;100.00
31761;BME280;18335;51.486;7.562;2023-02-28T08:39:27;101694.16;;;-1.38;100.00
31761;BME280;18335;51.486;7.562;2023-02-28T08:41:55;101695.78;;;-1.34;100.00
31761;BME280;18335;51.486;7.562;2023-02-28T08:44:21;101692.06;;;-1.30;100.00
31761;BME280;18335;51.486;7.562;2023-02-28T08:46:48;101698.75;;;-1.17;100.00
31761;BME280;18335;51.486;7.562;2023-02-28T08:49:15;101691.66;;;-0.94;100.00
31761;BME280;18335;51.486;7.562;2023-02-28T08:51:41;101690.84;;;-0.96;100.00
31761;BME280;18335;51.486;7.562;2023-02-28T08:54:08;101693.00;;;-0.83;100.00
31761;BME280;18335;51.486;7.562;2023-02-28T08:56:38;101692.00;;;-0.57;100.00
31761;BME280;18335;51.486;7.562;2023-02-28T08:59:06;101691.53;;;-0.45;100.00
31761;BME280;18335;51.486;7.562;2023-02-28T09:01:33;101695.88;;;-0.42;100.00
31761;BME280;18335;51.486;7.562;2023-02-28T09:03:59;101693.88;;;-0.37;100.00
31761;BME280;18335;51.486;7.562;2023-02-28T09:06:28;101699.03;;;-0.33;100.00
31761;BME280;18335;51.486;7.562;2023-02-28T09:08:56;101688.53;;;-0.16;100.00
31761;BME280;18335;51.486;7.562;2023-02-28T09:11:24;101689.97;;;-0.07;100.00
31761;BME280;18335;51.486;7.562;2023-02-28T09:13:51;101696.22;;;-0.07;100.00
31761;BME280;18335;51.486;7.562;2023-02-28T09:16:19;101698.31;;;-0.15;100.00
31761;BME280;18335;51.486;7.562;2023-02-28T09:18:46;101698.25;;;-0.13;100.00
31761;BME280;18335;51.486;7.562;2023-02-28T09:21:14;101693.53;;;-0.07;100.00
31761;BME280;18335;51.486;7.562;2023-02-28T09:23:41;101696.84;;;-0.22;100.00
31761;BME280;18335;51.486;7.562;2023-02-28T09:26:13;101696.97;;;-0.03;100.00
31761;BME280;18335;51.486;7.562;2023-02-28T09:28:40;101694.41;;;-0.06;100.00
31761;BME280;18335;51.486;7.562;2023-02-28T09:31:11;101692.69;;;-0.09;100.00
31761;BME280;18335;51.486;7.562;2023-02-28T09:33:40;101686.53;;;0.11;100.00
31761;BME280;18335;51.486;7.562;2023-02-28T09:36:08;101684.09;;;0.05;100.00
31761;BME280;18335;51.486;7.562;2023-02-28T09:38:34;101687.53;;;0.09;100.00
31761;BME280;18335;51.486;7.562;2023-02-28T09:41:10;101692.44;;;-0.03;100.00
31761;BME280;18335;51.486;7.562;2023-02-28T09:43:41;101697.81;;;-0.03;100.00
31761;BME280;18335;51.486;7.562;2023-02-28T09:46:18;101700.13;;;0.07;100.00
31761;BME280;18335;51.486;7.562;2023-02-28T09:48:51;101686.44;;;0.13;100.00
31761;BME280;18335;51.486;7.562;2023-02-28T09:51:28;101694.81;;;0.27;100.00
31761;BME280;18335;51.486;7.562;2023-02-28T09:53:56;101693.72;;;0.51;100.00
31761;BME280;18335;51.486;7.562;2023-02-28T09:56:26;101701.81;;;0.71;100.00
31761;BME280;18335;51.486;7.562;2023-02-28T09:58:57;101696.41;;;0.91;100.00
31761;BME280;18335;51.486;7.562;2023-02-28T10:01:31;101700.06;;;1.09;100.00
31761;BME280;18335;51.486;7.562;2023-02-28T10:04:07;101696.97;;;1.18;100.00
31761;BME280;18335;51.486;7.562;2023-02-28T10:06:41;101694.34;;;1.17;100.00
31761;BME280;18335;51.486;7.562;2023-02-28T10:09:14;101696.47;;;1.10;100.00
31761;BME280;18335;51.486;7.562;2023-02-28T10:11:44;101690.47;;;1.03;100.00
31761;BME280;18335;51.486;7.562;2023-02-28T10:14:14;101689.81;;;0.98;100.00
31761;BME280;18335;51.486;7.562;2023-02-28T10:16:45;101687.38;;;1.13;100.00
31761;BME280;18335;51.486;7.562;2023-02-28T10:19:20;101688.84;;;1.57;100.00
31761;BME280;18335;51.486;7.562;2023-02-28T10:21:54;101688.31;;;1.67;100.00
31761;BME280;18335;51.486;7.562;2023-02-28T10:24:27;101678.25;;;1.90;100.00
31761;BME280;18335;51.486;7.562;2023-02-28T10:26:59;101673.31;;;2.16;100.00
31761;BME280;18335;51.486;7.562;2023-02-28T10:29:26;101674.41;;;1.95;100.00
31761;BME280;18335;51.486;7.562;2023-02-28T10:31:55;101675.72;;;1.87;100.00
31761;BME280;18335;51.486;7.562;2023-02-28T10:34:24;101660.47;;;1.68;100.00
31761;BME280;18335;51.486;7.562;2023-02-28T10:36:51;101664.09;;;2.03;100.00
31761;BME280;18335;51.486;7.562;2023-02-28T10:39:35;101664.91;;;2.05;100.00
31761;BME280;18335;51.486;7.562;2023-02-28T10:42:03;101662.75;;;1.95;100.00
31761;BME280;18335;51.486;7.562;2023-02-28T10:44:30;101662.66;;;1.79;100.00
31761;BME280;18335;51.486;7.562;2023-02-28T10:46:57;101665.94;;;1.67;100.00
31761;BME280;18335;51.486;7.562;2023-02-28T10:49:26;101661.06;;;1.56;100.00
31761;BME280;18335;51.486;7.562;2023-02-28T10:51:56;101660.94;;;2.12;100.00
31761;BME280;18335;51.486;7.562;2023-02-28T10:54:28;101645.16;;;2.23;100.00
31761;BME280;18335;51.486;7.562;2023-02-28T10:57:08;101652.41;;;2.04;100.00
31761;BME280;18335;51.486;7.562;2023-02-28T10:59:40;101654.94;;;2.24;100.00
31761;BME280;18335;51.486;7.562;2023-02-28T11:02:29;101645.47;;;2.35;100.00
31761;BME280;18335;51.486;7.562;2023-02-28T11:04:58;101643.78;;;2.32;100.00
31761;BME280;18335;51.486;7.562;2023-02-28T11:07:25;101652.28;;;2.42;100.00
31761;BME280;18335;51.486;7.562;2023-02-28T11:09:54;101657.16;;;2.34;100.00
31761;BME280;18335;51.486;7.562;2023-02-28T11:12:23;101649.00;;;2.52;100.00
31761;BME280;18335;51.486;7.562;2023-02-28T11:14:53;101648.06;;;2.36;100.00
31761;BME280;18335;51.486;7.562;2023-02-28T11:17:23;101648.59;;;2.60;100.00
31761;BME280;18335;51.486;7.562;2023-02-28T11:19:52;101636.31;;;2.54;100.00
31761;BME280;18335;51.486;7.562;2023-02-28T11:22:25;101650.06;;;2.50;100.00
31761;BME280;18335;51.486;7.562;2023-02-28T11:24:55;101637.91;;;2.58;100.00
31761;BME280;18335;51.486;7.562;2023-02-28T11:27:43;101637.81;;;2.60;100.00
31761;BME280;18335;51.486;7.562;2023-02-28T11:30:31;101631.97;;;2.52;100.00
31761;BME280;18335;51.486;7.562;2023-02-28T11:32:58;101627.69;;;2.65;100.00
31761;BME280;18335;51.486;7.562;2023-02-28T11:35:29;101629.84;;;2.58;100.00
31761;BME280;18335;51.486;7.562;2023-02-28T11:37:58;101627.03;;;2.60;100.00
31761;BME280;18335;51.486;7.562;2023-02-28T11:40:31;101623.81;;;2.53;100.00
31761;BME280;18335;51.486;7.562;2023-02-28T11:43:10;101626.09;;;2.61;100.00
31761;BME280;18335;51.486;7.562;2023-02-28T11:45:48;101632.28;;;2.63;100.00
31761;BME280;18335;51.486;7.562;2023-02-28T11:48:25;101632.28;;;2.46;100.00
31761;BME280;18335;51.486;7.562;2023-02-28T11:51:10;101617.31;;;2.74;100.00
31761;BME280;18335;51.486;7.562;2023-02-28T11:53:52;101620.72;;;2.61;100.00
31761;BME280;18335;51.486;7.562;2023-02-28T11:56:31;101618.13;;;2.75;100.00
31761;BME280;18335;51.486;7.562;2023-02-28T11:59:30;101616.97;;;2.96;100.00
31761;BME280;18335;51.486;7.562;2023-02-28T12:02:18;101611.94;;;2.90;100.00
31761;BME280;18335;51.486;7.562;2023-02-28T12:04:53;101616.13;;;3.11;100.00
31761;BME280;18335;51.486;7.562;2023-02-28T12:07:32;101610.47;;;3.00;100.00
31761;BME280;18335;51.486;7.562;2023-02-28T12:10:06;101605.47;;;3.10;100.00
31761;BME280;18335;51.486;7.562;2023-02-28T12:12:47;101610.91;;;3.08;100.00
31761;BME280;18335;51.486;7.562;2023-02-28T12:15:38;101612.75;;;3.08;100.00
31761;BME280;18335;51.486;7.562;2023-02-28T12:18:19;101602.63;;;3.28;100.00
31761;BME280;18335;51.486;7.562;2023-02-28T12:20:53;101607.88;;;3.14;100.00
31761;BME280;18335;51.486;7.562;2023-02-28T12:23:42;101607.47;;;3.22;100.00
31761;BME280;18335;51.486;7.562;2023-02-28T12:26:19;101598.94;;;3.29;100.00
31761;BME280;18335;51.486;7.562;2023-02-28T12:28:51;101593.19;;;3.04;100.00
31761;BME280;18335;51.486;7.562;2023-02-28T12:31:22;101587.94;;;2.86;100.00
31761;BME280;18335;51.486;7.562;2023-02-28T12:33:52;101579.00;;;3.32;100.00
31761;BME280;18335;51.486;7.562;2023-02-28T12:36:20;101583.09;;;3.39;100.00
31761;BME280;18335;51.486;7.562;2023-02-28T12:38:53;101577.28;;;3.15;100.00
31761;BME280;18335;51.486;7.562;2023-02-28T12:41:27;101569.00;;;3.18;100.00
31761;BME280;18335;51.486;7.562;2023-02-28T12:44:01;101563.88;;;3.29;100.00
31761;BME280;18335;51.486;7.562;2023-02-28T12:46:32;101566.56;;;3.29;100.00
31761;BME280;18335;51.486;7.562;2023-02-28T12:49:05;101567.09;;;3.52;100.00
31761;BME280;18335;51.486;7.562;2023-02-28T12:51:34;101559.53;;;3.43;100.00
31761;BME280;18335;51.486;7.562;2023-02-28T12:54:10;101548.72;;;3.27;100.00
31761;BME280;18335;51.486;7.562;2023-02-28T12:56:46;101550.38;;;3.45;100.00
31761;BME280;18335;51.486;7.562;2023-02-28T12:59:23;101543.09;;;3.31;100.00
31761;BME280;18335;51.486;7.562;2023-02-28T13:02:09;101551.38;;;3.28;100.00
31761;BME280;18335;51.486;7.562;2023-02-28T13:04:43;101551.25;;;3.46;100.00
31761;BME280;18335;51.486;7.562;2023-02-28T13:07:35;101546.63;;;3.32;100.00